aviador You're here:

KGPT Decoded Metar

GULFPORT in MS, USA
Report Time2017-05-26 12:53:00
UTC Time2017-05-26 13:04:40
Flight Rules vfr VFR
Wind170° at 09 kt
W.Decomp.*RWY 18: 8.8 kt HW 1.9 kt LCW
RWY 14: 7.9 kt HW 4.2 kt RCW
W.Rank170° ranks 5
Current wind is above 170° avg. (6.5)
Visibility9999 m
Phenomena:N/A
Clouds:N/A
Expected CloudBase > 2,800 ft AGL from Temp-Dew spread
CeilingNone
Temp25°C (ISA +10)
Dew Point18°C (65% RH)
AAT24.5°C
QNH1016 hPa
Density Alt1,388 ft
Elevation46 ft
Report Wrong Elevation
Raw Report
KGPT 261253Z 17009KT 10SM CLR 25/18 A3000 RMK AO2 SLP159
T02500183=

Extra information for KGPT:More info

Metar Taf Metar & Taf Last 4 Metars F.Rules Stats Wind Profile Meteogram Temp Stats Airport Information Weather charts Add Link Nearby VenuesMetar ALERT Operation Metar Decoded Social comments

AIRNAV info for KGPT